createdAt,value
2019-04-27T00:01:45.343Z,99269.00
2019-04-27T00:04:11.762Z,99272.00
2019-04-27T00:06:17.713Z,99274.00
2019-04-27T00:08:38.781Z,99270.00
2019-04-27T00:10:49.121Z,99280.00
2019-04-27T00:12:57.326Z,99269.00
2019-04-27T00:15:03.352Z,99274.00
2019-04-27T00:17:44.939Z,99265.00
2019-04-27T00:19:53.731Z,99265.00
2019-04-27T00:22:23.083Z,99260.00
2019-04-27T00:24:28.676Z,99261.00
2019-04-27T00:26:34.178Z,99250.00
2019-04-27T00:28:39.680Z,99260.00
2019-04-27T00:30:44.762Z,99267.00
2019-04-27T00:32:50.325Z,99249.00
2019-04-27T00:34:55.527Z,99253.00
2019-04-27T00:37:18.911Z,99249.00
2019-04-27T00:39:33.032Z,99252.00
2019-04-27T00:41:38.172Z,99260.00
2019-04-27T00:43:44.533Z,99250.00
2019-04-27T00:45:49.631Z,99246.00
2019-04-27T00:47:59.438Z,99244.00
2019-04-27T00:50:03.432Z,99232.00
2019-04-27T00:52:08.470Z,99237.00
2019-04-27T00:54:13.963Z,99244.00
2019-04-27T00:56:43.215Z,99232.00
2019-04-27T00:59:07.818Z,99236.00
2019-04-27T01:01:23.438Z,99227.00
2019-04-27T01:03:40.187Z,99232.00
2019-04-27T01:05:48.409Z,99231.00
2019-04-27T01:07:57.767Z,99231.00
2019-04-27T01:10:05.342Z,99226.00
2019-04-27T01:12:11.529Z,99223.00
2019-04-27T01:14:16.548Z,99218.00
2019-04-27T01:16:24.010Z,99225.00
2019-04-27T01:18:28.789Z,99217.00
2019-04-27T01:20:33.878Z,99212.00
2019-04-27T01:22:39.228Z,99208.00
2019-04-27T01:24:45.030Z,99203.00
2019-04-27T01:27:09.822Z,99213.00
2019-04-27T01:29:19.205Z,99206.00
2019-04-27T01:31:24.606Z,99201.00
2019-04-27T01:33:30.379Z,99199.00
2019-04-27T01:35:35.816Z,99198.00
2019-04-27T01:37:40.845Z,99198.00
2019-04-27T01:39:46.136Z,99196.00
2019-04-27T01:41:51.581Z,99196.00
2019-04-27T01:43:56.664Z,99192.00
2019-04-27T01:46:02.100Z,99197.00
2019-04-27T01:48:20.911Z,99188.00
2019-04-27T01:50:15.151Z,99197.00
2019-04-27T01:52:20.306Z,99187.00
2019-04-27T01:54:29.035Z,99192.00
2019-04-27T01:56:34.501Z,99182.00
2019-04-27T01:58:39.604Z,99174.00
2019-04-27T02:01:18.711Z,99170.00
2019-04-27T02:03:34.530Z,99179.00
2019-04-27T02:05:55.621Z,99181.00
2019-04-27T02:08:01.257Z,99172.00
2019-04-27T02:10:09.803Z,99179.00
2019-04-27T02:12:15.384Z,99176.00
2019-04-27T02:14:20.814Z,99166.00
2019-04-27T02:16:26.229Z,99166.00
2019-04-27T02:18:37.540Z,99164.00
2019-04-27T02:20:38.849Z,99153.00
2019-04-27T02:22:44.302Z,99146.00
2019-04-27T02:24:50.009Z,99144.00
2019-04-27T02:26:55.205Z,99147.00
2019-04-27T02:29:19.630Z,99146.00
2019-04-27T02:31:50.047Z,99148.00
2019-04-27T02:34:01.214Z,99149.00
2019-04-27T02:36:06.378Z,99141.00
2019-04-27T02:38:11.553Z,99148.00
2019-04-27T02:40:55.033Z,99144.00
2019-04-27T02:43:00.519Z,99149.00
2019-04-27T02:45:06.138Z,99135.00
2019-04-27T02:47:11.982Z,99131.00
2019-04-27T02:49:20.019Z,99146.00
2019-04-27T02:51:32.205Z,99142.00
2019-04-27T02:53:57.087Z,99138.00
2019-04-27T02:56:02.286Z,99137.00
2019-04-27T02:58:12.288Z,99126.00
2019-04-27T03:00:15.615Z,99134.00
2019-04-27T03:02:32.793Z,99132.00
2019-04-27T03:04:39.897Z,99137.00
2019-04-27T03:06:45.207Z,99129.00
2019-04-27T03:08:54.059Z,99129.00
2019-04-27T03:10:57.798Z,99125.00
2019-04-27T03:13:22.296Z,99127.00
2019-04-27T03:15:40.290Z,99126.00
2019-04-27T03:18:00.501Z,99120.00
2019-04-27T03:20:31.356Z,99120.00
2019-04-27T03:22:45.816Z,99112.00
2019-04-27T03:25:30.402Z,99112.00
2019-04-27T03:27:36.763Z,99107.00
2019-04-27T03:29:42.630Z,99106.00
2019-04-27T03:31:53.703Z,99106.00
2019-04-27T03:33:58.883Z,99106.00
2019-04-27T03:36:03.075Z,99098.00
2019-04-27T03:38:10.421Z,99102.00
2019-04-27T03:40:15.494Z,99095.00
2019-04-27T03:42:21.609Z,99095.00
2019-04-27T03:44:31.721Z,99095.00
2019-04-27T03:46:33.738Z,99094.00
2019-04-27T03:48:40.841Z,99089.00
2019-04-27T03:50:55.330Z,99088.00
2019-04-27T03:53:31.847Z,99083.00
2019-04-27T03:55:42.233Z,99080.00
2019-04-27T03:58:12.105Z,99082.00
2019-04-27T04:00:20.202Z,99077.00
2019-04-27T04:02:25.328Z,99076.00
2019-04-27T04:04:32.798Z,99077.00
2019-04-27T04:06:39.942Z,99067.00
2019-04-27T04:08:44.841Z,99067.00
2019-04-27T04:10:55.203Z,99075.00
2019-04-27T04:13:14.636Z,99068.00
2019-04-27T04:15:36.466Z,99071.00
2019-04-27T04:17:41.747Z,99061.00
2019-04-27T04:19:54.492Z,99066.00
2019-04-27T04:21:53.775Z,99063.00
2019-04-27T04:24:00.902Z,99056.00
2019-04-27T04:26:06.877Z,99060.00
2019-04-27T04:28:12.284Z,99044.00
2019-04-27T04:30:19.963Z,99056.00
2019-04-27T04:32:24.539Z,99059.00
2019-04-27T04:34:29.995Z,99048.00
2019-04-27T04:36:36.213Z,99050.00
2019-04-27T04:38:41.376Z,99051.00
2019-04-27T04:40:53.076Z,99048.00
2019-04-27T04:43:05.065Z,99050.00
2019-04-27T04:45:17.393Z,99043.00
2019-04-27T04:47:54.571Z,99047.00
2019-04-27T04:50:10.332Z,99036.00
2019-04-27T04:52:09.455Z,99031.00
2019-04-27T04:54:14.476Z,99034.00
2019-04-27T04:56:19.630Z,99039.00
2019-04-27T04:58:25.364Z,99041.00
2019-04-27T05:00:30.937Z,99042.00
2019-04-27T05:02:36.568Z,99040.00
2019-04-27T05:04:41.953Z,99034.00
2019-04-27T05:06:49.160Z,99037.00
2019-04-27T05:08:54.319Z,99041.00
2019-04-27T05:11:02.711Z,99043.00
2019-04-27T05:13:09.384Z,99036.00
2019-04-27T05:15:14.985Z,99030.00
2019-04-27T05:17:20.170Z,99043.00
2019-04-27T05:19:26.056Z,99038.00
2019-04-27T05:21:33.503Z,99035.00
2019-04-27T05:23:39.282Z,99041.00
2019-04-27T05:25:44.535Z,99039.00
2019-04-27T05:27:49.554Z,99034.00
2019-04-27T05:29:54.691Z,99040.00
2019-04-27T05:31:59.884Z,99042.00
2019-04-27T05:34:06.871Z,99032.00
2019-04-27T05:36:11.966Z,99032.00
2019-04-27T05:38:19.329Z,99032.00
2019-04-27T05:40:25.121Z,99037.00
2019-04-27T05:42:30.518Z,99026.00
2019-04-27T05:45:19.457Z,99036.00
2019-04-27T05:47:29.259Z,99038.00
2019-04-27T05:49:44.362Z,99031.00
2019-04-27T05:51:50.114Z,99034.00
2019-04-27T05:53:55.481Z,99033.00
2019-04-27T05:56:01.350Z,99028.00
2019-04-27T05:58:06.527Z,99022.00
2019-04-27T06:00:13.298Z,99026.00
2019-04-27T06:02:20.354Z,99023.00
2019-04-27T06:04:25.441Z,99029.00
2019-04-27T06:06:30.884Z,99018.00
2019-04-27T06:08:36.219Z,99023.00
2019-04-27T06:10:41.323Z,99016.00
2019-04-27T06:12:48.598Z,99016.00
2019-04-27T06:14:54.384Z,99016.00
2019-04-27T06:16:59.764Z,99018.00
2019-04-27T06:19:05.227Z,99013.00
2019-04-27T06:21:10.333Z,99011.00
2019-04-27T06:23:15.434Z,99010.00
2019-04-27T06:25:21.832Z,98999.00
2019-04-27T06:27:30.202Z,98999.00
2019-04-27T06:29:33.790Z,99000.00
2019-04-27T06:31:39.665Z,99001.00
2019-04-27T06:33:45.199Z,98987.00
2019-04-27T06:35:50.500Z,98999.00
2019-04-27T06:37:56.090Z,98997.00
2019-04-27T06:40:01.564Z,98998.00
2019-04-27T06:42:16.630Z,98989.00
2019-04-27T06:44:13.915Z,98992.00
2019-04-27T06:46:20.047Z,98990.00
2019-04-27T06:48:25.476Z,98984.00
2019-04-27T06:50:30.750Z,98984.00
2019-04-27T06:52:36.081Z,98985.00
2019-04-27T06:54:41.335Z,98990.00
2019-04-27T06:56:48.736Z,98987.00
2019-04-27T06:58:54.616Z,98987.00
2019-04-27T07:01:00.068Z,98993.00
2019-04-27T07:03:05.523Z,98978.00
2019-04-27T07:05:11.995Z,98994.00
2019-04-27T07:07:17.037Z,98987.00
2019-04-27T07:09:22.548Z,98984.00
2019-04-27T07:11:29.254Z,98994.00
2019-04-27T07:13:35.034Z,98987.00
2019-04-27T07:15:40.511Z,98988.00
2019-04-27T07:17:48.707Z,98995.00
2019-04-27T07:19:54.093Z,98989.00
2019-04-27T07:21:59.601Z,98992.00
2019-04-27T07:24:05.128Z,98983.00
2019-04-27T07:26:10.173Z,98984.00
2019-04-27T07:28:15.637Z,98985.00
2019-04-27T07:30:21.020Z,98991.00
2019-04-27T07:32:26.109Z,98989.00
2019-04-27T07:34:31.663Z,98985.00
2019-04-27T07:36:37.027Z,98987.00
2019-04-27T07:38:42.980Z,98991.00
2019-04-27T07:40:48.960Z,98984.00
2019-04-27T07:42:59.594Z,98986.00
2019-04-27T07:45:11.274Z,98990.00
2019-04-27T07:47:21.837Z,98978.00
2019-04-27T07:49:29.057Z,98982.00
2019-04-27T07:51:34.595Z,98978.00
2019-04-27T07:53:39.568Z,98972.00
2019-04-27T07:55:45.167Z,98976.00
2019-04-27T07:57:50.302Z,98976.00
2019-04-27T07:59:55.469Z,98980.00
2019-04-27T08:02:00.728Z,98975.00
2019-04-27T08:04:05.906Z,98970.00
2019-04-27T08:06:11.734Z,98970.00
2019-04-27T08:08:16.893Z,98965.00
2019-04-27T08:10:22.724Z,98971.00
2019-04-27T08:12:28.873Z,98968.00
2019-04-27T08:14:34.113Z,98976.00
2019-04-27T08:16:39.284Z,98970.00
2019-04-27T08:18:44.704Z,98968.00
2019-04-27T08:20:49.898Z,98975.00
2019-04-27T08:22:55.077Z,98966.00
2019-04-27T08:25:00.182Z,98972.00
2019-04-27T08:27:24.546Z,98965.00
2019-04-27T08:29:44.057Z,98983.00
2019-04-27T08:31:53.368Z,98967.00
2019-04-27T08:34:00.066Z,98968.00
2019-04-27T08:36:05.435Z,98965.00
2019-04-27T08:38:11.199Z,98965.00
2019-04-27T08:40:17.080Z,98963.00
2019-04-27T08:42:22.268Z,98958.00
2019-04-27T08:44:27.401Z,98953.00
2019-04-27T08:46:33.341Z,98961.00
2019-04-27T08:48:39.279Z,98964.00
2019-04-27T08:50:44.468Z,98960.00
2019-04-27T08:52:50.455Z,98964.00
2019-04-27T08:54:55.761Z,98954.00
2019-04-27T08:57:01.754Z,98956.00
2019-04-27T08:59:07.050Z,98950.00
2019-04-27T09:01:12.065Z,98957.00
2019-04-27T09:03:16.991Z,98955.00
2019-04-27T09:05:26.031Z,98945.00
2019-04-27T09:07:42.573Z,98946.00
2019-04-27T09:09:49.813Z,98944.00
2019-04-27T09:12:22.743Z,98952.00
2019-04-27T09:14:41.922Z,98950.00
2019-04-27T09:17:06.263Z,98936.00
2019-04-27T09:19:19.558Z,98938.00
2019-04-27T09:21:25.374Z,98928.00
2019-04-27T09:23:30.857Z,98928.00
2019-04-27T09:25:36.569Z,98933.00
2019-04-27T09:27:42.027Z,98940.00
2019-04-27T09:29:47.045Z,98937.00
2019-04-27T09:31:52.073Z,98923.00
2019-04-27T09:33:57.714Z,98924.00
2019-04-27T09:36:03.307Z,98926.00
2019-04-27T09:38:08.563Z,98912.00
2019-04-27T09:40:13.752Z,98924.00
2019-04-27T09:42:18.902Z,98915.00
2019-04-27T09:44:24.112Z,98912.00
2019-04-27T09:46:29.377Z,98909.00
2019-04-27T09:48:36.090Z,98901.00
2019-04-27T09:50:41.358Z,98914.00
2019-04-27T09:52:46.444Z,98907.00
2019-04-27T09:54:51.768Z,98906.00
2019-04-27T09:56:57.201Z,98909.00
2019-04-27T09:59:03.217Z,98899.00
2019-04-27T10:01:08.905Z,98900.00
2019-04-27T10:03:14.745Z,98903.00
2019-04-27T10:05:20.256Z,98899.00
2019-04-27T10:07:26.885Z,98898.00
2019-04-27T10:09:31.875Z,98895.00
2019-04-27T10:11:37.103Z,98885.00
2019-04-27T10:13:42.474Z,98889.00
2019-04-27T10:15:48.763Z,98897.00
2019-04-27T10:17:57.334Z,98895.00
2019-04-27T10:20:01.522Z,98899.00
2019-04-27T10:22:06.770Z,98897.00
2019-04-27T10:24:11.857Z,98887.00
2019-04-27T10:26:17.360Z,98895.00
2019-04-27T10:28:22.855Z,98888.00
2019-04-27T10:30:28.872Z,98886.00
2019-04-27T10:32:35.872Z,98885.00
2019-04-27T10:34:40.966Z,98882.00
2019-04-27T10:36:46.628Z,98879.00
2019-04-27T10:38:52.080Z,98877.00
2019-04-27T10:40:57.311Z,98881.00
2019-04-27T10:43:03.323Z,98874.00
2019-04-27T10:45:09.786Z,98869.00
2019-04-27T10:47:15.916Z,98867.00
2019-04-27T10:49:21.536Z,98911.00
2019-04-27T10:51:27.109Z,98941.00
2019-04-27T10:53:32.553Z,98935.00
2019-04-27T10:55:38.219Z,98938.00
2019-04-27T10:57:43.281Z,98933.00
2019-04-27T10:59:48.455Z,98925.00
2019-04-27T11:01:55.932Z,98936.00
2019-04-27T11:04:19.185Z,98948.00
2019-04-27T11:06:31.750Z,98953.00
2019-04-27T11:08:36.832Z,98944.00
2019-04-27T11:10:42.015Z,98952.00
2019-04-27T11:12:47.215Z,98954.00
2019-04-27T11:14:52.428Z,98945.00
2019-04-27T11:16:57.620Z,98931.00
2019-04-27T11:19:03.060Z,98949.00
2019-04-27T11:21:08.171Z,98951.00
2019-04-27T11:23:13.371Z,98958.00
2019-04-27T11:25:18.938Z,98957.00
2019-04-27T11:27:24.283Z,98951.00
2019-04-27T11:29:29.483Z,98960.00
2019-04-27T11:31:36.312Z,98958.00
2019-04-27T11:33:41.794Z,98965.00
2019-04-27T11:35:56.100Z,98961.00
2019-04-27T11:38:01.628Z,98962.00
2019-04-27T11:40:08.413Z,98968.00
2019-04-27T11:42:13.968Z,98962.00
2019-04-27T11:44:19.161Z,98973.00
2019-04-27T11:46:24.564Z,98967.00
2019-04-27T11:48:29.751Z,98964.00
2019-04-27T11:50:35.773Z,98965.00
2019-04-27T11:52:41.887Z,98976.00
2019-04-27T11:54:47.077Z,98980.00
2019-04-27T11:56:52.221Z,98966.00
2019-04-27T11:58:57.646Z,98976.00
2019-04-27T12:01:02.859Z,98978.00
2019-04-27T12:03:08.056Z,98977.00
2019-04-27T12:05:13.632Z,98980.00
2019-04-27T12:07:18.788Z,98971.00
2019-04-27T12:09:23.898Z,98985.00
2019-04-27T12:11:29.278Z,98981.00
2019-04-27T12:13:35.928Z,98982.00
2019-04-27T12:15:41.254Z,98986.00
2019-04-27T12:17:46.348Z,98995.00
2019-04-27T12:19:51.530Z,98996.00
2019-04-27T12:21:56.682Z,98996.00
2019-04-27T12:24:01.767Z,99001.00
2019-04-27T12:26:08.935Z,99011.00
2019-04-27T12:28:31.421Z,99013.00
2019-04-27T12:30:44.179Z,99008.00
2019-04-27T12:32:49.570Z,99012.00
2019-04-27T12:34:56.550Z,99006.00
2019-04-27T12:37:01.934Z,99007.00
2019-04-27T12:39:15.529Z,99012.00
2019-04-27T12:41:21.065Z,99012.00
2019-04-27T12:43:26.240Z,99009.00
2019-04-27T12:45:31.491Z,99020.00
2019-04-27T12:47:36.718Z,99020.00
2019-04-27T12:49:42.258Z,99021.00
2019-04-27T12:51:47.357Z,99012.00
2019-04-27T12:54:11.527Z,99024.00
2019-04-27T12:56:31.550Z,99007.00
2019-04-27T12:58:49.963Z,98984.00
2019-04-27T13:00:55.746Z,99000.00
2019-04-27T13:03:00.841Z,98990.00
2019-04-27T13:05:06.394Z,99002.00
2019-04-27T13:07:11.535Z,98993.00
2019-04-27T13:09:17.305Z,98987.00
2019-04-27T13:11:23.011Z,98982.00
2019-04-27T13:13:28.686Z,98978.00
2019-04-27T13:15:35.644Z,98992.00
2019-04-27T13:17:40.977Z,98983.00
2019-04-27T13:19:46.130Z,98973.00
2019-04-27T13:21:51.967Z,98977.00
2019-04-27T13:24:03.993Z,98972.00
2019-04-27T13:26:06.214Z,98966.00
2019-04-27T13:28:11.563Z,98973.00
2019-04-27T13:30:18.811Z,98971.00
2019-04-27T13:32:26.486Z,98981.00
2019-04-27T13:34:34.432Z,98982.00
2019-04-27T13:36:39.912Z,98979.00
2019-04-27T13:38:46.662Z,98979.00
2019-04-27T13:41:11.728Z,98970.00
2019-04-27T13:43:26.316Z,98965.00
2019-04-27T13:45:51.674Z,98971.00
2019-04-27T13:48:26.102Z,98971.00
2019-04-27T13:50:42.830Z,98962.00
2019-04-27T13:52:47.957Z,98957.00
2019-04-27T13:54:53.116Z,98965.00
2019-04-27T13:56:58.561Z,98963.00
2019-04-27T13:59:07.262Z,98958.00
2019-04-27T14:01:10.920Z,98952.00
2019-04-27T14:03:16.810Z,98967.00
2019-04-27T14:05:22.027Z,98960.00
2019-04-27T14:07:27.081Z,98960.00
2019-04-27T14:09:32.284Z,98955.00
2019-04-27T14:11:39.354Z,98963.00
2019-04-27T14:13:44.795Z,98952.00
2019-04-27T14:15:50.232Z,98942.00
2019-04-27T14:17:55.292Z,98953.00
2019-04-27T14:20:00.608Z,98957.00
2019-04-27T14:22:09.265Z,98964.00
2019-04-27T14:24:14.301Z,98957.00
2019-04-27T14:26:20.473Z,98954.00
2019-04-27T14:28:26.352Z,98954.00
2019-04-27T14:30:31.906Z,98955.00
2019-04-27T14:32:38.776Z,98958.00
2019-04-27T14:34:44.274Z,98935.00
2019-04-27T14:36:49.596Z,98928.00
2019-04-27T14:38:54.964Z,98927.00
2019-04-27T14:41:00.545Z,98915.00
2019-04-27T14:43:05.828Z,98923.00
2019-04-27T14:45:11.375Z,98926.00
2019-04-27T14:47:18.680Z,98917.00
2019-04-27T14:49:24.154Z,98913.00
2019-04-27T14:51:29.345Z,98915.00
2019-04-27T14:53:34.706Z,98917.00
2019-04-27T14:55:40.018Z,98915.00
2019-04-27T14:57:45.301Z,98918.00
2019-04-27T14:59:50.680Z,98917.00
2019-04-27T15:01:56.068Z,98912.00
2019-04-27T15:04:01.213Z,98913.00
2019-04-27T15:06:06.309Z,98919.00
2019-04-27T15:08:11.971Z,98929.00
2019-04-27T15:10:18.097Z,98928.00
2019-04-27T15:12:30.415Z,98934.00
2019-04-27T15:14:31.383Z,98926.00
2019-04-27T15:16:37.869Z,98927.00
2019-04-27T15:18:50.019Z,98916.00
2019-04-27T15:20:58.533Z,98906.00
2019-04-27T15:23:02.370Z,98909.00
2019-04-27T15:25:13.730Z,98903.00
2019-04-27T15:27:17.422Z,98912.00
2019-04-27T15:29:25.265Z,98907.00
2019-04-27T15:31:41.865Z,98911.00
2019-04-27T15:34:05.228Z,98912.00
2019-04-27T15:36:14.569Z,98913.00
2019-04-27T15:38:23.602Z,98908.00
2019-04-27T15:41:02.854Z,98916.00
2019-04-27T15:43:38.526Z,98899.00
2019-04-27T15:45:43.432Z,98910.00
2019-04-27T15:47:54.265Z,98903.00
2019-04-27T15:49:55.743Z,98912.00
2019-04-27T15:52:00.773Z,98915.00
2019-04-27T15:54:05.913Z,98918.00
2019-04-27T15:56:11.104Z,98917.00
2019-04-27T15:58:20.828Z,98924.00
2019-04-27T16:00:28.854Z,98930.00
2019-04-27T16:02:34.086Z,98932.00
2019-04-27T16:04:44.304Z,98942.00
2019-04-27T16:06:47.682Z,98966.00
2019-04-27T16:08:53.819Z,99030.00
2019-04-27T16:10:58.962Z,99024.00
2019-04-27T16:13:06.855Z,99028.00
2019-04-27T16:15:13.516Z,99020.00
2019-04-27T16:17:19.173Z,99012.00
2019-04-27T16:19:24.280Z,99004.00
2019-04-27T16:21:31.528Z,99006.00
2019-04-27T16:23:40.261Z,99013.00
2019-04-27T16:25:48.472Z,99023.00
2019-04-27T16:27:50.199Z,99025.00
2019-04-27T16:29:55.465Z,99020.00
2019-04-27T16:32:02.820Z,99027.00
2019-04-27T16:34:08.396Z,99030.00
2019-04-27T16:36:14.012Z,99015.00
2019-04-27T16:38:48.129Z,99031.00
2019-04-27T16:40:54.727Z,99021.00
2019-04-27T16:43:00.160Z,99013.00
2019-04-27T16:45:05.989Z,99019.00
2019-04-27T16:47:12.496Z,99021.00
2019-04-27T16:49:18.777Z,99023.00
2019-04-27T16:51:23.974Z,99022.00
2019-04-27T16:53:30.117Z,99026.00
2019-04-27T16:55:36.356Z,99023.00
2019-04-27T16:57:41.531Z,99022.00
2019-04-27T16:59:54.821Z,99021.00
2019-04-27T17:01:53.858Z,99026.00
2019-04-27T17:03:59.535Z,99028.00
2019-04-27T17:06:07.882Z,99036.00
2019-04-27T17:08:21.462Z,99028.00
2019-04-27T17:10:25.576Z,99038.00
2019-04-27T17:12:29.897Z,99037.00
2019-04-27T17:15:05.823Z,99039.00
2019-04-27T17:17:24.507Z,99037.00
2019-04-27T17:19:35.921Z,99034.00
2019-04-27T17:21:41.185Z,99047.00
2019-04-27T17:23:48.158Z,99036.00
2019-04-27T17:25:57.212Z,99056.00
2019-04-27T17:28:05.316Z,99056.00
2019-04-27T17:30:12.594Z,99066.00
2019-04-27T17:32:48.643Z,99068.00
2019-04-27T17:34:55.616Z,99065.00
2019-04-27T17:36:59.691Z,99079.00
2019-04-27T17:39:08.454Z,99072.00
2019-04-27T17:41:13.721Z,99081.00
2019-04-27T17:43:19.345Z,99068.00
2019-04-27T17:45:24.674Z,99077.00
2019-04-27T17:47:30.129Z,99084.00
2019-04-27T17:49:35.309Z,99097.00
2019-04-27T17:51:44.253Z,99096.00
2019-04-27T17:53:49.694Z,99095.00
2019-04-27T17:55:55.071Z,99101.00
2019-04-27T17:58:05.200Z,99107.00
2019-04-27T18:00:09.749Z,99113.00
2019-04-27T18:02:15.447Z,99109.00
2019-04-27T18:04:21.022Z,99122.00
2019-04-27T18:06:29.576Z,99118.00
2019-04-27T18:08:33.212Z,99115.00
2019-04-27T18:10:38.689Z,99120.00
2019-04-27T18:12:48.493Z,99106.00
2019-04-27T18:14:52.084Z,99119.00
2019-04-27T18:16:58.350Z,99124.00
2019-04-27T18:19:18.607Z,99130.00
2019-04-27T18:21:29.794Z,99132.00
2019-04-27T18:23:36.730Z,99134.00
2019-04-27T18:25:48.140Z,99139.00
2019-04-27T18:28:15.092Z,99138.00
2019-04-27T18:30:20.511Z,99128.00
2019-04-27T18:32:27.745Z,99136.00
2019-04-27T18:34:32.806Z,99144.00
2019-04-27T18:36:43.728Z,99139.00
2019-04-27T18:38:45.073Z,99151.00
2019-04-27T18:40:50.724Z,99150.00
2019-04-27T18:42:56.005Z,99153.00
2019-04-27T18:45:06.844Z,99162.00
2019-04-27T18:47:08.461Z,99157.00
2019-04-27T18:49:38.749Z,99160.00
2019-04-27T18:52:12.271Z,99167.00
2019-04-27T18:54:18.383Z,99171.00
2019-04-27T18:56:24.220Z,99182.00
2019-04-27T18:58:29.638Z,99212.00
2019-04-27T19:00:35.536Z,99233.00
2019-04-27T19:02:44.168Z,99217.00
2019-04-27T19:04:50.171Z,99218.00
2019-04-27T19:06:55.766Z,99214.00
2019-04-27T19:09:01.344Z,99209.00
2019-04-27T19:11:09.070Z,99209.00
2019-04-27T19:13:15.563Z,99218.00
2019-04-27T19:15:20.986Z,99223.00
2019-04-27T19:17:28.232Z,99230.00
2019-04-27T19:19:33.715Z,99250.00
2019-04-27T19:21:39.278Z,99249.00
2019-04-27T19:23:45.226Z,99254.00
2019-04-27T19:25:58.543Z,99260.00
2019-04-27T19:28:14.577Z,99277.00
2019-04-27T19:30:28.031Z,99277.00
2019-04-27T19:32:33.349Z,99282.00
2019-04-27T19:34:39.420Z,99277.00
2019-04-27T19:36:45.854Z,99276.00
2019-04-27T19:38:52.824Z,99275.00
2019-04-27T19:40:58.467Z,99262.00
2019-04-27T19:43:05.124Z,99266.00
2019-04-27T19:45:10.739Z,99254.00
2019-04-27T19:47:15.837Z,99253.00
2019-04-27T19:49:21.245Z,99244.00
2019-04-27T19:51:28.239Z,99248.00
2019-04-27T19:53:33.979Z,99254.00
2019-04-27T19:55:40.612Z,99253.00
2019-04-27T19:57:46.471Z,99251.00
2019-04-27T19:59:55.647Z,99249.00
2019-04-27T20:02:03.360Z,99252.00
2019-04-27T20:04:15.864Z,99251.00
2019-04-27T20:06:20.943Z,99255.00
2019-04-27T20:08:29.755Z,99246.00
2019-04-27T20:10:34.937Z,99263.00
2019-04-27T20:12:41.102Z,99254.00
2019-04-27T20:14:58.911Z,99259.00
2019-04-27T20:17:11.071Z,99265.00
2019-04-27T20:19:18.564Z,99260.00
2019-04-27T20:21:24.470Z,99260.00
2019-04-27T20:23:32.093Z,99264.00
2019-04-27T20:25:41.265Z,99258.00
2019-04-27T20:27:49.978Z,99267.00
2019-04-27T20:30:00.695Z,99259.00
2019-04-27T20:32:08.654Z,99263.00
2019-04-27T20:34:15.288Z,99260.00
2019-04-27T20:36:21.404Z,99270.00
2019-04-27T20:38:26.550Z,99274.00
2019-04-27T20:40:32.656Z,99266.00
2019-04-27T20:42:38.727Z,99264.00
2019-04-27T20:44:45.111Z,99260.00
2019-04-27T20:46:52.975Z,99269.00
2019-04-27T20:49:00.898Z,99266.00
2019-04-27T20:51:06.331Z,99265.00
2019-04-27T20:53:15.455Z,99271.00
2019-04-27T20:55:21.521Z,99273.00
2019-04-27T20:57:26.851Z,99266.00
2019-04-27T20:59:32.045Z,99265.00
2019-04-27T21:01:37.345Z,99270.00
2019-04-27T21:03:51.255Z,99274.00
2019-04-27T21:06:15.351Z,99276.00
2019-04-27T21:08:21.733Z,99274.00
2019-04-27T21:10:26.914Z,99275.00
2019-04-27T21:12:31.945Z,99271.00
2019-04-27T21:14:37.610Z,99275.00
2019-04-27T21:16:43.155Z,99282.00
2019-04-27T21:18:48.548Z,99265.00
2019-04-27T21:20:53.801Z,99278.00
2019-04-27T21:22:59.264Z,99281.00
2019-04-27T21:25:05.304Z,99285.00
2019-04-27T21:27:12.877Z,99287.00
2019-04-27T21:29:17.984Z,99286.00
2019-04-27T21:31:23.745Z,99282.00
2019-04-27T21:33:28.884Z,99285.00
2019-04-27T21:35:35.179Z,99289.00
2019-04-27T21:37:40.901Z,99289.00
2019-04-27T21:39:46.312Z,99298.00
2019-04-27T21:41:51.858Z,99296.00
2019-04-27T21:43:57.326Z,99295.00
2019-04-27T21:46:02.375Z,99304.00
2019-04-27T21:48:07.464Z,99299.00
2019-04-27T21:50:13.634Z,99296.00
2019-04-27T21:52:27.451Z,99295.00
2019-04-27T21:54:33.293Z,99308.00
2019-04-27T21:56:38.270Z,99305.00
2019-04-27T21:58:43.450Z,99309.00
2019-04-27T22:01:09.259Z,99306.00
2019-04-27T22:03:15.454Z,99314.00
2019-04-27T22:05:21.096Z,99312.00
2019-04-27T22:07:26.238Z,99306.00
2019-04-27T22:09:31.703Z,99316.00
2019-04-27T22:11:36.890Z,99309.00
2019-04-27T22:13:42.294Z,99322.00
2019-04-27T22:15:47.379Z,99321.00
2019-04-27T22:17:52.894Z,99319.00
2019-04-27T22:19:59.317Z,99320.00
2019-04-27T22:22:06.423Z,99324.00
2019-04-27T22:24:42.777Z,99323.00
2019-04-27T22:26:46.702Z,99329.00
2019-04-27T22:28:52.257Z,99322.00
2019-04-27T22:30:57.389Z,99325.00
2019-04-27T22:33:02.495Z,99328.00
2019-04-27T22:35:08.182Z,99331.00
2019-04-27T22:37:13.710Z,99332.00
2019-04-27T22:39:24.598Z,99335.00
2019-04-27T22:41:43.860Z,99343.00
2019-04-27T22:44:01.363Z,99339.00
2019-04-27T22:46:08.922Z,99341.00
2019-04-27T22:48:14.360Z,99350.00
2019-04-27T22:50:21.008Z,99346.00
2019-04-27T22:52:26.219Z,99349.00
2019-04-27T22:54:32.005Z,99350.00
2019-04-27T22:56:38.677Z,99349.00
2019-04-27T22:58:59.938Z,99358.00
2019-04-27T23:01:04.451Z,99350.00
2019-04-27T23:03:11.974Z,99354.00
2019-04-27T23:05:17.061Z,99353.00
2019-04-27T23:07:22.254Z,99351.00
2019-04-27T23:09:27.404Z,99352.00
2019-04-27T23:11:34.366Z,99355.00
2019-04-27T23:13:39.488Z,99353.00
2019-04-27T23:15:47.238Z,99350.00
2019-04-27T23:17:56.181Z,99355.00
2019-04-27T23:20:01.739Z,99354.00
2019-04-27T23:22:06.825Z,99344.00
2019-04-27T23:24:11.972Z,99346.00
2019-04-27T23:26:17.048Z,99347.00
2019-04-27T23:28:22.445Z,99345.00
2019-04-27T23:30:38.156Z,99347.00
2019-04-27T23:32:46.273Z,99341.00
2019-04-27T23:34:51.532Z,99347.00
2019-04-27T23:36:56.636Z,99349.00
2019-04-27T23:39:01.989Z,99355.00
2019-04-27T23:41:07.147Z,99342.00
2019-04-27T23:43:12.245Z,99346.00
2019-04-27T23:45:18.108Z,99344.00
2019-04-27T23:47:24.405Z,99342.00
2019-04-27T23:49:30.853Z,99338.00
2019-04-27T23:51:45.727Z,99334.00
2019-04-27T23:53:51.668Z,99336.00
2019-04-27T23:55:56.919Z,99336.00
2019-04-27T23:58:02.490Z,99337.00
